sensor_id;sensor_type;location;lat;lon;timestamp;P1;durP1;ratioP1;P2;durP2;ratioP2
61015;SDS011;46902;52.920;6.536;2022-12-07T00:00:18;11.73;;;1.50;;
61015;SDS011;46902;52.920;6.536;2022-12-07T00:02:43;11.23;;;1.58;;
61015;SDS011;46902;52.920;6.536;2022-12-07T00:05:09;8.15;;;1.70;;
61015;SDS011;46902;52.920;6.536;2022-12-07T00:07:34;9.88;;;1.35;;
61015;SDS011;46902;52.920;6.536;2022-12-07T00:10:00;7.78;;;1.70;;
61015;SDS011;46902;52.920;6.536;2022-12-07T00:12:26;6.95;;;1.38;;
61015;SDS011;46902;52.920;6.536;2022-12-07T00:14:51;11.50;;;2.00;;
61015;SDS011;46902;52.920;6.536;2022-12-07T00:17:17;6.43;;;1.30;;
61015;SDS011;46902;52.920;6.536;2022-12-07T00:19:42;7.70;;;1.60;;
61015;SDS011;46902;52.920;6.536;2022-12-07T00:22:08;9.88;;;1.90;;
61015;SDS011;46902;52.920;6.536;2022-12-07T00:24:33;11.60;;;1.73;;
61015;SDS011;46902;52.920;6.536;2022-12-07T00:26:59;11.10;;;1.70;;
61015;SDS011;46902;52.920;6.536;2022-12-07T00:29:24;10.52;;;1.88;;
61015;SDS011;46902;52.920;6.536;2022-12-07T00:31:50;9.20;;;1.30;;
61015;SDS011;46902;52.920;6.536;2022-12-07T00:34:17;11.38;;;1.48;;
61015;SDS011;46902;52.920;6.536;2022-12-07T00:36:44;9.73;;;1.90;;
61015;SDS011;46902;52.920;6.536;2022-12-07T00:39:10;9.75;;;1.58;;
61015;SDS011;46902;52.920;6.536;2022-12-07T00:41:35;8.43;;;1.88;;
61015;SDS011;46902;52.920;6.536;2022-12-07T00:44:01;8.40;;;1.70;;
61015;SDS011;46902;52.920;6.536;2022-12-07T00:46:26;10.52;;;1.63;;
61015;SDS011;46902;52.920;6.536;2022-12-07T00:48:52;8.45;;;1.25;;
61015;SDS011;46902;52.920;6.536;2022-12-07T00:51:22;10.02;;;1.60;;
61015;SDS011;46902;52.920;6.536;2022-12-07T00:53:48;8.90;;;1.20;;
61015;SDS011;46902;52.920;6.536;2022-12-07T00:56:15;6.63;;;1.60;;
61015;SDS011;46902;52.920;6.536;2022-12-07T00:58:50;12.15;;;1.65;;
61015;SDS011;46902;52.920;6.536;2022-12-07T01:01:24;10.10;;;1.80;;
61015;SDS011;46902;52.920;6.536;2022-12-07T01:03:52;14.05;;;1.73;;
61015;SDS011;46902;52.920;6.536;2022-12-07T01:06:18;10.98;;;2.25;;
61015;SDS011;46902;52.920;6.536;2022-12-07T01:08:45;12.00;;;1.23;;
61015;SDS011;46902;52.920;6.536;2022-12-07T01:11:12;13.45;;;2.20;;
61015;SDS011;46902;52.920;6.536;2022-12-07T01:13:39;11.20;;;1.90;;
61015;SDS011;46902;52.920;6.536;2022-12-07T01:16:06;6.70;;;1.50;;
61015;SDS011;46902;52.920;6.536;2022-12-07T01:18:32;9.95;;;1.45;;
61015;SDS011;46902;52.920;6.536;2022-12-07T01:21:01;15.13;;;1.70;;
61015;SDS011;46902;52.920;6.536;2022-12-07T01:23:29;12.52;;;1.95;;
61015;SDS011;46902;52.920;6.536;2022-12-07T01:25:59;13.45;;;1.77;;
61015;SDS011;46902;52.920;6.536;2022-12-07T01:28:29;10.32;;;1.42;;
61015;SDS011;46902;52.920;6.536;2022-12-07T01:30:56;8.48;;;1.45;;
61015;SDS011;46902;52.920;6.536;2022-12-07T01:33:26;11.65;;;1.40;;
61015;SDS011;46902;52.920;6.536;2022-12-07T01:35:53;7.45;;;1.35;;
61015;SDS011;46902;52.920;6.536;2022-12-07T01:38:19;6.03;;;1.27;;
61015;SDS011;46902;52.920;6.536;2022-12-07T01:40:45;8.85;;;1.73;;
61015;SDS011;46902;52.920;6.536;2022-12-07T01:43:17;8.18;;;1.20;;
61015;SDS011;46902;52.920;6.536;2022-12-07T01:48:09;7.97;;;1.13;;
61015;SDS011;46902;52.920;6.536;2022-12-07T01:50:37;10.18;;;1.33;;
61015;SDS011;46902;52.920;6.536;2022-12-07T01:53:05;10.25;;;1.63;;
61015;SDS011;46902;52.920;6.536;2022-12-07T01:55:34;9.65;;;1.20;;
61015;SDS011;46902;52.920;6.536;2022-12-07T01:58:04;7.07;;;1.08;;
61015;SDS011;46902;52.920;6.536;2022-12-07T02:00:30;10.93;;;1.75;;
61015;SDS011;46902;52.920;6.536;2022-12-07T02:05:44;11.57;;;1.15;;
61015;SDS011;46902;52.920;6.536;2022-12-07T02:08:11;10.77;;;1.85;;
61015;SDS011;46902;52.920;6.536;2022-12-07T02:10:38;8.73;;;1.17;;
61015;SDS011;46902;52.920;6.536;2022-12-07T02:13:04;6.68;;;0.93;;
61015;SDS011;46902;52.920;6.536;2022-12-07T02:21:39;7.40;;;1.40;;
61015;SDS011;46902;52.920;6.536;2022-12-07T02:24:25;5.57;;;1.15;;
61015;SDS011;46902;52.920;6.536;2022-12-07T02:27:07;7.70;;;1.27;;
61015;SDS011;46902;52.920;6.536;2022-12-07T02:29:49;8.60;;;1.00;;
61015;SDS011;46902;52.920;6.536;2022-12-07T02:35:00;9.93;;;1.73;;
61015;SDS011;46902;52.920;6.536;2022-12-07T02:40:19;9.73;;;1.20;;
61015;SDS011;46902;52.920;6.536;2022-12-07T02:42:57;10.90;;;1.70;;
61015;SDS011;46902;52.920;6.536;2022-12-07T02:45:44;6.95;;;1.35;;
61015;SDS011;46902;52.920;6.536;2022-12-07T02:48:13;11.77;;;1.98;;
61015;SDS011;46902;52.920;6.536;2022-12-07T02:50:50;8.02;;;1.15;;
61015;SDS011;46902;52.920;6.536;2022-12-07T02:53:30;6.03;;;1.25;;
61015;SDS011;46902;52.920;6.536;2022-12-07T02:56:03;4.30;;;0.88;;
61015;SDS011;46902;52.920;6.536;2022-12-07T03:01:24;6.10;;;1.00;;
61015;SDS011;46902;52.920;6.536;2022-12-07T03:03:58;8.30;;;1.10;;
61015;SDS011;46902;52.920;6.536;2022-12-07T03:07:02;8.05;;;1.23;;
61015;SDS011;46902;52.920;6.536;2022-12-07T03:09:46;7.18;;;1.00;;
61015;SDS011;46902;52.920;6.536;2022-12-07T03:12:25;6.70;;;1.20;;
61015;SDS011;46902;52.920;6.536;2022-12-07T03:14:59;8.02;;;1.30;;
61015;SDS011;46902;52.920;6.536;2022-12-07T03:17:31;8.27;;;1.40;;
61015;SDS011;46902;52.920;6.536;2022-12-07T03:20:02;8.63;;;1.10;;
61015;SDS011;46902;52.920;6.536;2022-12-07T03:22:31;8.88;;;1.00;;
61015;SDS011;46902;52.920;6.536;2022-12-07T03:25:00;7.63;;;1.08;;
61015;SDS011;46902;52.920;6.536;2022-12-07T03:30:04;9.80;;;1.60;;
61015;SDS011;46902;52.920;6.536;2022-12-07T03:40:44;9.05;;;0.95;;
61015;SDS011;46902;52.920;6.536;2022-12-07T03:43:15;9.07;;;1.27;;
61015;SDS011;46902;52.920;6.536;2022-12-07T03:45:43;7.47;;;1.10;;
61015;SDS011;46902;52.920;6.536;2022-12-07T03:48:50;8.60;;;1.30;;
61015;SDS011;46902;52.920;6.536;2022-12-07T03:51:36;7.78;;;1.10;;
61015;SDS011;46902;52.920;6.536;2022-12-07T03:56:47;7.90;;;0.93;;
61015;SDS011;46902;52.920;6.536;2022-12-07T03:59:15;8.70;;;0.90;;
61015;SDS011;46902;52.920;6.536;2022-12-07T04:01:43;11.27;;;1.10;;
61015;SDS011;46902;52.920;6.536;2022-12-07T04:04:09;8.57;;;0.95;;
61015;SDS011;46902;52.920;6.536;2022-12-07T04:06:35;7.70;;;1.25;;
61015;SDS011;46902;52.920;6.536;2022-12-07T04:09:01;9.75;;;1.73;;
61015;SDS011;46902;52.920;6.536;2022-12-07T04:11:26;11.15;;;1.15;;
61015;SDS011;46902;52.920;6.536;2022-12-07T04:13:52;7.78;;;1.40;;
61015;SDS011;46902;52.920;6.536;2022-12-07T04:16:36;9.45;;;1.10;;
61015;SDS011;46902;52.920;6.536;2022-12-07T04:19:01;12.05;;;1.67;;
61015;SDS011;46902;52.920;6.536;2022-12-07T04:21:27;8.05;;;1.20;;
61015;SDS011;46902;52.920;6.536;2022-12-07T04:23:52;5.38;;;0.80;;
61015;SDS011;46902;52.920;6.536;2022-12-07T04:26:18;4.72;;;0.80;;
61015;SDS011;46902;52.920;6.536;2022-12-07T04:28:44;5.90;;;1.05;;
61015;SDS011;46902;52.920;6.536;2022-12-07T04:31:09;8.93;;;1.50;;
61015;SDS011;46902;52.920;6.536;2022-12-07T04:33:35;7.38;;;0.77;;
61015;SDS011;46902;52.920;6.536;2022-12-07T04:36:01;7.90;;;1.00;;
61015;SDS011;46902;52.920;6.536;2022-12-07T04:38:27;13.13;;;1.92;;
61015;SDS011;46902;52.920;6.536;2022-12-07T04:40:52;8.90;;;1.20;;
61015;SDS011;46902;52.920;6.536;2022-12-07T04:43:18;8.70;;;1.10;;
61015;SDS011;46902;52.920;6.536;2022-12-07T04:45:47;7.35;;;1.73;;
61015;SDS011;46902;52.920;6.536;2022-12-07T04:48:13;8.07;;;1.20;;
61015;SDS011;46902;52.920;6.536;2022-12-07T04:50:38;15.30;;;1.20;;
61015;SDS011;46902;52.920;6.536;2022-12-07T04:53:04;9.10;;;1.20;;
61015;SDS011;46902;52.920;6.536;2022-12-07T04:55:29;6.13;;;0.82;;
61015;SDS011;46902;52.920;6.536;2022-12-07T04:57:55;7.70;;;1.15;;
61015;SDS011;46902;52.920;6.536;2022-12-07T05:00:21;10.32;;;1.30;;
61015;SDS011;46902;52.920;6.536;2022-12-07T05:02:46;12.48;;;1.77;;
61015;SDS011;46902;52.920;6.536;2022-12-07T05:05:12;11.82;;;1.45;;
61015;SDS011;46902;52.920;6.536;2022-12-07T05:07:37;9.80;;;1.67;;
61015;SDS011;46902;52.920;6.536;2022-12-07T05:10:03;9.30;;;1.20;;
61015;SDS011;46902;52.920;6.536;2022-12-07T05:12:29;8.65;;;1.02;;
61015;SDS011;46902;52.920;6.536;2022-12-07T05:14:55;13.10;;;1.17;;
61015;SDS011;46902;52.920;6.536;2022-12-07T05:17:20;7.40;;;0.93;;
61015;SDS011;46902;52.920;6.536;2022-12-07T05:19:46;11.73;;;1.33;;
61015;SDS011;46902;52.920;6.536;2022-12-07T05:22:11;7.93;;;1.23;;
61015;SDS011;46902;52.920;6.536;2022-12-07T05:24:38;10.15;;;1.55;;
61015;SDS011;46902;52.920;6.536;2022-12-07T05:27:03;8.23;;;1.00;;
61015;SDS011;46902;52.920;6.536;2022-12-07T05:29:29;7.70;;;1.20;;
61015;SDS011;46902;52.920;6.536;2022-12-07T05:31:55;12.50;;;1.35;;
61015;SDS011;46902;52.920;6.536;2022-12-07T05:34:20;7.95;;;2.40;;
61015;SDS011;46902;52.920;6.536;2022-12-07T05:36:46;9.43;;;2.10;;
61015;SDS011;46902;52.920;6.536;2022-12-07T05:39:11;7.10;;;2.28;;
61015;SDS011;46902;52.920;6.536;2022-12-07T05:41:37;11.43;;;1.73;;
61015;SDS011;46902;52.920;6.536;2022-12-07T05:44:21;9.45;;;1.52;;
61015;SDS011;46902;52.920;6.536;2022-12-07T05:46:46;7.07;;;1.48;;
61015;SDS011;46902;52.920;6.536;2022-12-07T05:49:12;9.82;;;1.80;;
61015;SDS011;46902;52.920;6.536;2022-12-07T05:51:38;8.55;;;1.08;;
61015;SDS011;46902;52.920;6.536;2022-12-07T05:54:03;5.38;;;1.08;;
61015;SDS011;46902;52.920;6.536;2022-12-07T05:56:29;5.10;;;1.23;;
61015;SDS011;46902;52.920;6.536;2022-12-07T05:58:54;9.20;;;0.93;;
61015;SDS011;46902;52.920;6.536;2022-12-07T06:01:38;12.85;;;1.40;;
61015;SDS011;46902;52.920;6.536;2022-12-07T06:04:05;13.77;;;1.70;;
61015;SDS011;46902;52.920;6.536;2022-12-07T06:06:30;7.25;;;1.30;;
61015;SDS011;46902;52.920;6.536;2022-12-07T06:08:56;8.82;;;1.23;;
61015;SDS011;46902;52.920;6.536;2022-12-07T06:11:21;10.38;;;1.00;;
61015;SDS011;46902;52.920;6.536;2022-12-07T06:14:05;12.45;;;1.30;;
61015;SDS011;46902;52.920;6.536;2022-12-07T06:16:31;8.20;;;1.00;;
61015;SDS011;46902;52.920;6.536;2022-12-07T06:18:56;9.40;;;0.93;;
61015;SDS011;46902;52.920;6.536;2022-12-07T06:21:22;10.20;;;1.33;;
61015;SDS011;46902;52.920;6.536;2022-12-07T06:23:48;5.53;;;1.05;;
61015;SDS011;46902;52.920;6.536;2022-12-07T06:26:13;8.57;;;1.13;;
61015;SDS011;46902;52.920;6.536;2022-12-07T06:28:39;9.75;;;1.08;;
61015;SDS011;46902;52.920;6.536;2022-12-07T06:31:05;7.05;;;1.33;;
61015;SDS011;46902;52.920;6.536;2022-12-07T06:33:31;6.80;;;1.23;;
61015;SDS011;46902;52.920;6.536;2022-12-07T06:35:56;8.30;;;1.27;;
61015;SDS011;46902;52.920;6.536;2022-12-07T06:38:22;9.35;;;1.35;;
61015;SDS011;46902;52.920;6.536;2022-12-07T06:40:47;4.85;;;1.17;;
61015;SDS011;46902;52.920;6.536;2022-12-07T06:43:13;8.70;;;1.13;;
61015;SDS011;46902;52.920;6.536;2022-12-07T06:45:40;7.10;;;1.30;;
61015;SDS011;46902;52.920;6.536;2022-12-07T06:48:06;8.35;;;0.90;;
61015;SDS011;46902;52.920;6.536;2022-12-07T06:50:31;8.00;;;1.10;;
61015;SDS011;46902;52.920;6.536;2022-12-07T06:52:57;8.85;;;1.00;;
61015;SDS011;46902;52.920;6.536;2022-12-07T06:55:23;9.13;;;1.10;;
61015;SDS011;46902;52.920;6.536;2022-12-07T06:57:48;9.85;;;1.25;;
61015;SDS011;46902;52.920;6.536;2022-12-07T07:00:14;7.53;;;1.27;;
61015;SDS011;46902;52.920;6.536;2022-12-07T07:02:40;10.23;;;1.40;;
61015;SDS011;46902;52.920;6.536;2022-12-07T07:05:05;5.80;;;1.33;;
61015;SDS011;46902;52.920;6.536;2022-12-07T07:07:31;9.30;;;1.30;;
61015;SDS011;46902;52.920;6.536;2022-12-07T07:09:57;9.93;;;1.10;;
61015;SDS011;46902;52.920;6.536;2022-12-07T07:12:22;7.25;;;1.15;;
61015;SDS011;46902;52.920;6.536;2022-12-07T07:14:48;9.35;;;1.23;;
61015;SDS011;46902;52.920;6.536;2022-12-07T07:17:13;11.93;;;1.30;;
61015;SDS011;46902;52.920;6.536;2022-12-07T07:19:40;5.70;;;1.30;;
61015;SDS011;46902;52.920;6.536;2022-12-07T07:22:05;13.70;;;1.48;;
61015;SDS011;46902;52.920;6.536;2022-12-07T07:24:31;8.38;;;1.40;;
61015;SDS011;46902;52.920;6.536;2022-12-07T07:26:56;8.10;;;1.20;;
61015;SDS011;46902;52.920;6.536;2022-12-07T07:29:22;8.40;;;1.40;;
61015;SDS011;46902;52.920;6.536;2022-12-07T07:31:47;10.82;;;1.25;;
61015;SDS011;46902;52.920;6.536;2022-12-07T07:34:13;14.15;;;1.60;;
61015;SDS011;46902;52.920;6.536;2022-12-07T07:36:39;9.35;;;1.40;;
61015;SDS011;46902;52.920;6.536;2022-12-07T07:39:04;7.00;;;1.00;;
61015;SDS011;46902;52.920;6.536;2022-12-07T07:41:30;10.90;;;1.10;;
61015;SDS011;46902;52.920;6.536;2022-12-07T07:43:59;6.15;;;1.35;;
61015;SDS011;46902;52.920;6.536;2022-12-07T07:46:24;9.13;;;1.20;;
61015;SDS011;46902;52.920;6.536;2022-12-07T07:48:50;7.68;;;1.30;;
61015;SDS011;46902;52.920;6.536;2022-12-07T07:51:15;7.15;;;1.10;;
61015;SDS011;46902;52.920;6.536;2022-12-07T07:53:41;8.30;;;1.23;;
61015;SDS011;46902;52.920;6.536;2022-12-07T07:56:06;9.32;;;1.85;;
61015;SDS011;46902;52.920;6.536;2022-12-07T07:58:32;11.82;;;1.30;;
61015;SDS011;46902;52.920;6.536;2022-12-07T08:01:03;10.30;;;1.20;;
61015;SDS011;46902;52.920;6.536;2022-12-07T08:03:29;10.20;;;1.38;;
61015;SDS011;46902;52.920;6.536;2022-12-07T08:05:54;10.98;;;1.70;;
61015;SDS011;46902;52.920;6.536;2022-12-07T08:08:20;10.48;;;1.58;;
61015;SDS011;46902;52.920;6.536;2022-12-07T08:10:46;14.07;;;1.80;;
61015;SDS011;46902;52.920;6.536;2022-12-07T08:13:11;8.18;;;1.08;;
61015;SDS011;46902;52.920;6.536;2022-12-07T08:15:39;8.75;;;1.30;;
61015;SDS011;46902;52.920;6.536;2022-12-07T08:18:06;8.65;;;1.55;;
61015;SDS011;46902;52.920;6.536;2022-12-07T08:20:33;5.05;;;1.02;;
61015;SDS011;46902;52.920;6.536;2022-12-07T08:23:00;8.30;;;1.38;;
61015;SDS011;46902;52.920;6.536;2022-12-07T08:25:26;8.57;;;1.27;;
61015;SDS011;46902;52.920;6.536;2022-12-07T08:27:52;10.55;;;1.23;;
61015;SDS011;46902;52.920;6.536;2022-12-07T08:30:18;7.10;;;1.60;;
61015;SDS011;46902;52.920;6.536;2022-12-07T08:32:44;10.15;;;1.58;;
61015;SDS011;46902;52.920;6.536;2022-12-07T08:35:11;11.52;;;1.33;;
61015;SDS011;46902;52.920;6.536;2022-12-07T08:37:37;9.60;;;1.20;;
61015;SDS011;46902;52.920;6.536;2022-12-07T08:40:03;14.18;;;1.90;;
61015;SDS011;46902;52.920;6.536;2022-12-07T08:42:31;9.75;;;1.83;;
61015;SDS011;46902;52.920;6.536;2022-12-07T08:45:06;12.18;;;1.50;;
61015;SDS011;46902;52.920;6.536;2022-12-07T08:47:34;10.10;;;1.70;;
61015;SDS011;46902;52.920;6.536;2022-12-07T08:50:02;10.35;;;1.27;;
61015;SDS011;46902;52.920;6.536;2022-12-07T08:52:30;12.20;;;1.55;;
61015;SDS011;46902;52.920;6.536;2022-12-07T08:54:56;12.32;;;1.40;;
61015;SDS011;46902;52.920;6.536;2022-12-07T08:57:23;9.63;;;1.40;;
61015;SDS011;46902;52.920;6.536;2022-12-07T08:59:49;10.05;;;1.40;;
61015;SDS011;46902;52.920;6.536;2022-12-07T09:02:14;11.77;;;1.73;;
61015;SDS011;46902;52.920;6.536;2022-12-07T09:04:40;8.35;;;1.30;;
61015;SDS011;46902;52.920;6.536;2022-12-07T09:07:05;9.27;;;1.63;;
61015;SDS011;46902;52.920;6.536;2022-12-07T09:09:31;6.75;;;1.40;;
61015;SDS011;46902;52.920;6.536;2022-12-07T09:11:57;7.38;;;1.48;;
61015;SDS011;46902;52.920;6.536;2022-12-07T09:14:22;8.27;;;1.20;;
61015;SDS011;46902;52.920;6.536;2022-12-07T09:16:48;10.27;;;1.42;;
61015;SDS011;46902;52.920;6.536;2022-12-07T09:19:14;11.25;;;1.48;;
61015;SDS011;46902;52.920;6.536;2022-12-07T09:21:39;9.82;;;1.40;;
61015;SDS011;46902;52.920;6.536;2022-12-07T09:24:05;10.07;;;1.50;;
61015;SDS011;46902;52.920;6.536;2022-12-07T09:26:31;10.13;;;1.80;;
61015;SDS011;46902;52.920;6.536;2022-12-07T09:28:56;13.23;;;1.55;;
61015;SDS011;46902;52.920;6.536;2022-12-07T09:31:22;11.30;;;1.60;;
61015;SDS011;46902;52.920;6.536;2022-12-07T09:33:52;10.55;;;1.58;;
61015;SDS011;46902;52.920;6.536;2022-12-07T09:36:21;13.95;;;1.88;;
61015;SDS011;46902;52.920;6.536;2022-12-07T09:38:47;7.38;;;1.33;;
61015;SDS011;46902;52.920;6.536;2022-12-07T09:41:12;8.32;;;1.58;;
61015;SDS011;46902;52.920;6.536;2022-12-07T09:43:39;7.45;;;1.13;;
61015;SDS011;46902;52.920;6.536;2022-12-07T09:46:05;8.65;;;1.58;;
61015;SDS011;46902;52.920;6.536;2022-12-07T09:48:35;5.68;;;1.60;;
61015;SDS011;46902;52.920;6.536;2022-12-07T09:51:02;11.80;;;2.25;;
61015;SDS011;46902;52.920;6.536;2022-12-07T09:53:38;5.93;;;1.27;;
61015;SDS011;46902;52.920;6.536;2022-12-07T09:56:04;9.07;;;1.63;;
61015;SDS011;46902;52.920;6.536;2022-12-07T09:58:30;12.35;;;2.13;;
61015;SDS011;46902;52.920;6.536;2022-12-07T10:03:32;11.75;;;1.83;;
61015;SDS011;46902;52.920;6.536;2022-12-07T10:06:00;10.23;;;1.90;;
61015;SDS011;46902;52.920;6.536;2022-12-07T10:08:26;10.02;;;1.40;;
61015;SDS011;46902;52.920;6.536;2022-12-07T10:10:53;8.18;;;1.38;;
61015;SDS011;46902;52.920;6.536;2022-12-07T10:13:22;12.57;;;1.75;;
61015;SDS011;46902;52.920;6.536;2022-12-07T10:16:03;7.68;;;1.40;;
61015;SDS011;46902;52.920;6.536;2022-12-07T10:18:36;9.35;;;1.30;;
61015;SDS011;46902;52.920;6.536;2022-12-07T10:23:37;7.50;;;1.00;;
61015;SDS011;46902;52.920;6.536;2022-12-07T10:26:25;10.45;;;1.70;;
61015;SDS011;46902;52.920;6.536;2022-12-07T10:28:51;5.90;;;1.60;;
61015;SDS011;46902;52.920;6.536;2022-12-07T10:31:18;7.03;;;1.25;;
61015;SDS011;46902;52.920;6.536;2022-12-07T10:33:48;8.40;;;1.10;;
61015;SDS011;46902;52.920;6.536;2022-12-07T10:36:23;10.63;;;1.63;;
61015;SDS011;46902;52.920;6.536;2022-12-07T10:39:39;8.48;;;1.27;;
61015;SDS011;46902;52.920;6.536;2022-12-07T10:41:55;8.93;;;1.20;;
61015;SDS011;46902;52.920;6.536;2022-12-07T10:44:32;6.70;;;1.25;;
61015;SDS011;46902;52.920;6.536;2022-12-07T10:50:11;8.60;;;1.00;;
61015;SDS011;46902;52.920;6.536;2022-12-07T10:52:53;10.90;;;1.30;;
61015;SDS011;46902;52.920;6.536;2022-12-07T11:03:36;7.30;;;1.40;;
61015;SDS011;46902;52.920;6.536;2022-12-07T11:12:09;7.40;;;1.33;;
61015;SDS011;46902;52.920;6.536;2022-12-07T11:20:49;9.73;;;1.13;;
61015;SDS011;46902;52.920;6.536;2022-12-07T11:23:26;7.15;;;1.08;;
61015;SDS011;46902;52.920;6.536;2022-12-07T11:31:29;8.13;;;1.42;;
61015;SDS011;46902;52.920;6.536;2022-12-07T11:36:50;9.07;;;1.20;;
61015;SDS011;46902;52.920;6.536;2022-12-07T11:39:22;9.93;;;1.35;;
61015;SDS011;46902;52.920;6.536;2022-12-07T11:42:00;6.00;;;1.10;;
61015;SDS011;46902;52.920;6.536;2022-12-07T11:44:47;6.25;;;1.33;;
61015;SDS011;46902;52.920;6.536;2022-12-07T11:52:30;8.00;;;1.65;;
61015;SDS011;46902;52.920;6.536;2022-12-07T11:55:14;6.27;;;1.27;;
61015;SDS011;46902;52.920;6.536;2022-12-07T11:58:18;8.55;;;1.27;;
61015;SDS011;46902;52.920;6.536;2022-12-07T12:01:18;6.93;;;1.13;;
61015;SDS011;46902;52.920;6.536;2022-12-07T12:03:52;8.32;;;1.17;;
61015;SDS011;46902;52.920;6.536;2022-12-07T12:06:24;8.65;;;1.60;;
61015;SDS011;46902;52.920;6.536;2022-12-07T12:08:59;9.82;;;1.42;;
61015;SDS011;46902;52.920;6.536;2022-12-07T12:14:30;8.05;;;1.50;;
61015;SDS011;46902;52.920;6.536;2022-12-07T12:20:06;8.00;;;1.10;;
61015;SDS011;46902;52.920;6.536;2022-12-07T12:22:39;9.00;;;1.60;;
61015;SDS011;46902;52.920;6.536;2022-12-07T12:28:29;8.18;;;1.17;;
61015;SDS011;46902;52.920;6.536;2022-12-07T12:31:14;15.05;;;2.70;;
61015;SDS011;46902;52.920;6.536;2022-12-07T12:33:57;13.18;;;1.60;;
61015;SDS011;46902;52.920;6.536;2022-12-07T12:39:10;6.18;;;1.20;;
61015;SDS011;46902;52.920;6.536;2022-12-07T12:47:00;8.10;;;1.60;;
61015;SDS011;46902;52.920;6.536;2022-12-07T12:51:54;7.88;;;2.00;;
61015;SDS011;46902;52.920;6.536;2022-12-07T12:54:22;6.20;;;1.08;;
61015;SDS011;46902;52.920;6.536;2022-12-07T12:59:31;3.35;;;0.77;;
61015;SDS011;46902;52.920;6.536;2022-12-07T13:05:02;4.72;;;0.80;;
61015;SDS011;46902;52.920;6.536;2022-12-07T13:15:45;3.05;;;0.75;;
61015;SDS011;46902;52.920;6.536;2022-12-07T13:26:15;2.53;;;0.63;;
61015;SDS011;46902;52.920;6.536;2022-12-07T13:28:44;2.17;;;0.63;;
61015;SDS011;46902;52.920;6.536;2022-12-07T13:33:55;3.25;;;1.17;;
61015;SDS011;46902;52.920;6.536;2022-12-07T13:36:22;3.20;;;0.40;;
61015;SDS011;46902;52.920;6.536;2022-12-07T13:38:54;3.75;;;0.50;;
61015;SDS011;46902;52.920;6.536;2022-12-07T13:41:21;2.95;;;0.52;;
61015;SDS011;46902;52.920;6.536;2022-12-07T13:43:52;2.83;;;0.82;;
61015;SDS011;46902;52.920;6.536;2022-12-07T13:46:26;4.35;;;1.45;;
61015;SDS011;46902;52.920;6.536;2022-12-07T13:49:12;3.50;;;1.00;;
61015;SDS011;46902;52.920;6.536;2022-12-07T13:51:41;2.28;;;0.50;;
61015;SDS011;46902;52.920;6.536;2022-12-07T13:54:11;3.35;;;0.70;;
61015;SDS011;46902;52.920;6.536;2022-12-07T13:56:37;2.60;;;0.47;;
61015;SDS011;46902;52.920;6.536;2022-12-07T13:59:05;2.95;;;0.65;;
61015;SDS011;46902;52.920;6.536;2022-12-07T14:01:37;1.98;;;0.50;;
61015;SDS011;46902;52.920;6.536;2022-12-07T14:04:16;5.60;;;0.40;;
61015;SDS011;46902;52.920;6.536;2022-12-07T14:07:18;4.57;;;0.50;;
61015;SDS011;46902;52.920;6.536;2022-12-07T14:09:56;3.35;;;0.45;;
61015;SDS011;46902;52.920;6.536;2022-12-07T14:12:30;3.78;;;0.40;;
61015;SDS011;46902;52.920;6.536;2022-12-07T14:14:57;6.25;;;0.68;;
61015;SDS011;46902;52.920;6.536;2022-12-07T14:17:25;4.55;;;0.70;;
61015;SDS011;46902;52.920;6.536;2022-12-07T14:19:59;2.88;;;0.50;;
61015;SDS011;46902;52.920;6.536;2022-12-07T14:22:35;7.65;;;1.10;;
61015;SDS011;46902;52.920;6.536;2022-12-07T14:25:14;4.00;;;0.90;;
61015;SDS011;46902;52.920;6.536;2022-12-07T14:30:32;4.88;;;0.57;;
61015;SDS011;46902;52.920;6.536;2022-12-07T14:32:59;2.78;;;0.50;;
61015;SDS011;46902;52.920;6.536;2022-12-07T14:35:28;4.22;;;0.50;;
61015;SDS011;46902;52.920;6.536;2022-12-07T14:37:54;5.45;;;0.82;;
61015;SDS011;46902;52.920;6.536;2022-12-07T14:40:21;4.93;;;1.23;;
61015;SDS011;46902;52.920;6.536;2022-12-07T14:42:50;2.70;;;0.60;;
61015;SDS011;46902;52.920;6.536;2022-12-07T14:45:20;6.35;;;1.02;;
61015;SDS011;46902;52.920;6.536;2022-12-07T14:47:46;4.82;;;0.70;;
61015;SDS011;46902;52.920;6.536;2022-12-07T14:50:17;2.92;;;0.70;;
61015;SDS011;46902;52.920;6.536;2022-12-07T14:52:45;7.88;;;1.27;;
61015;SDS011;46902;52.920;6.536;2022-12-07T14:55:18;3.53;;;0.55;;
61015;SDS011;46902;52.920;6.536;2022-12-07T14:57:48;5.18;;;0.80;;
61015;SDS011;46902;52.920;6.536;2022-12-07T15:00:15;4.32;;;0.80;;
61015;SDS011;46902;52.920;6.536;2022-12-07T15:02:42;5.80;;;0.85;;
61015;SDS011;46902;52.920;6.536;2022-12-07T15:05:09;4.15;;;1.00;;
61015;SDS011;46902;52.920;6.536;2022-12-07T15:07:35;5.05;;;0.90;;
61015;SDS011;46902;52.920;6.536;2022-12-07T15:10:01;5.90;;;0.80;;
61015;SDS011;46902;52.920;6.536;2022-12-07T15:12:27;6.68;;;0.70;;
61015;SDS011;46902;52.920;6.536;2022-12-07T15:14:52;4.13;;;0.75;;
61015;SDS011;46902;52.920;6.536;2022-12-07T15:17:18;6.07;;;0.90;;
61015;SDS011;46902;52.920;6.536;2022-12-07T15:19:44;5.80;;;0.90;;
61015;SDS011;46902;52.920;6.536;2022-12-07T15:22:09;4.45;;;0.85;;
61015;SDS011;46902;52.920;6.536;2022-12-07T15:24:36;6.05;;;1.42;;
61015;SDS011;46902;52.920;6.536;2022-12-07T15:27:02;4.57;;;0.70;;
61015;SDS011;46902;52.920;6.536;2022-12-07T15:29:28;3.17;;;0.70;;
61015;SDS011;46902;52.920;6.536;2022-12-07T15:31:55;5.97;;;0.90;;
61015;SDS011;46902;52.920;6.536;2022-12-07T15:34:21;7.82;;;1.33;;
61015;SDS011;46902;52.920;6.536;2022-12-07T15:36:48;6.80;;;1.20;;
61015;SDS011;46902;52.920;6.536;2022-12-07T15:39:13;10.05;;;1.17;;
61015;SDS011;46902;52.920;6.536;2022-12-07T15:41:39;5.75;;;1.02;;
61015;SDS011;46902;52.920;6.536;2022-12-07T15:44:04;5.45;;;1.00;;
61015;SDS011;46902;52.920;6.536;2022-12-07T15:46:48;8.25;;;1.48;;
61015;SDS011;46902;52.920;6.536;2022-12-07T15:49:15;5.28;;;0.73;;
61015;SDS011;46902;52.920;6.536;2022-12-07T15:51:43;5.30;;;0.70;;
61015;SDS011;46902;52.920;6.536;2022-12-07T15:54:13;9.40;;;0.82;;
61015;SDS011;46902;52.920;6.536;2022-12-07T15:56:46;8.48;;;1.20;;
61015;SDS011;46902;52.920;6.536;2022-12-07T15:59:12;7.13;;;0.88;;
61015;SDS011;46902;52.920;6.536;2022-12-07T16:01:38;6.70;;;1.23;;
61015;SDS011;46902;52.920;6.536;2022-12-07T16:04:03;5.68;;;1.00;;
61015;SDS011;46902;52.920;6.536;2022-12-07T16:06:29;6.10;;;0.90;;
61015;SDS011;46902;52.920;6.536;2022-12-07T16:08:55;4.78;;;0.95;;
61015;SDS011;46902;52.920;6.536;2022-12-07T16:11:20;3.50;;;0.75;;
61015;SDS011;46902;52.920;6.536;2022-12-07T16:13:46;7.13;;;1.27;;
61015;SDS011;46902;52.920;6.536;2022-12-07T16:16:13;8.52;;;1.17;;
61015;SDS011;46902;52.920;6.536;2022-12-07T16:18:41;4.03;;;0.70;;
61015;SDS011;46902;52.920;6.536;2022-12-07T16:21:08;3.10;;;0.60;;
61015;SDS011;46902;52.920;6.536;2022-12-07T16:23:34;4.90;;;0.52;;
61015;SDS011;46902;52.920;6.536;2022-12-07T16:26:03;5.75;;;0.90;;
61015;SDS011;46902;52.920;6.536;2022-12-07T16:28:50;4.95;;;0.60;;
61015;SDS011;46902;52.920;6.536;2022-12-07T16:31:18;5.22;;;0.88;;
61015;SDS011;46902;52.920;6.536;2022-12-07T16:33:46;4.20;;;0.75;;
61015;SDS011;46902;52.920;6.536;2022-12-07T16:36:12;5.28;;;0.60;;
61015;SDS011;46902;52.920;6.536;2022-12-07T16:38:41;4.88;;;0.75;;
61015;SDS011;46902;52.920;6.536;2022-12-07T16:41:07;3.90;;;0.57;;
61015;SDS011;46902;52.920;6.536;2022-12-07T16:43:33;2.50;;;0.40;;
61015;SDS011;46902;52.920;6.536;2022-12-07T16:46:00;3.70;;;0.35;;
61015;SDS011;46902;52.920;6.536;2022-12-07T16:48:26;2.88;;;0.30;;
61015;SDS011;46902;52.920;6.536;2022-12-07T16:50:52;2.85;;;0.68;;
61015;SDS011;46902;52.920;6.536;2022-12-07T16:53:19;3.75;;;0.50;;
61015;SDS011;46902;52.920;6.536;2022-12-07T16:55:45;1.67;;;0.40;;
61015;SDS011;46902;52.920;6.536;2022-12-07T16:58:12;2.65;;;0.38;;